sensor_id;sensor_type;location;lat;lon;timestamp;P1;durP1;ratioP1;P2;durP2;ratioP2
33786;SDS011;29742;51.540;9.358;2024-01-30T00:02:51;1.63;;;1.30;;
33786;SDS011;29742;51.540;9.358;2024-01-30T00:07:51;1.73;;;1.45;;
33786;SDS011;29742;51.540;9.358;2024-01-30T00:12:52;1.77;;;1.23;;
33786;SDS011;29742;51.540;9.358;2024-01-30T00:17:53;1.77;;;1.27;;
33786;SDS011;29742;51.540;9.358;2024-01-30T00:22:53;2.38;;;1.58;;
33786;SDS011;29742;51.540;9.358;2024-01-30T00:27:54;1.85;;;1.10;;
33786;SDS011;29742;51.540;9.358;2024-01-30T00:32:54;2.38;;;1.30;;
33786;SDS011;29742;51.540;9.358;2024-01-30T00:37:54;1.75;;;1.35;;
33786;SDS011;29742;51.540;9.358;2024-01-30T00:42:55;1.63;;;1.05;;
33786;SDS011;29742;51.540;9.358;2024-01-30T00:47:55;1.25;;;1.00;;
33786;SDS011;29742;51.540;9.358;2024-01-30T00:52:55;1.20;;;1.10;;
33786;SDS011;29742;51.540;9.358;2024-01-30T00:57:56;1.38;;;1.20;;
33786;SDS011;29742;51.540;9.358;2024-01-30T01:02:56;1.50;;;1.33;;
33786;SDS011;29742;51.540;9.358;2024-01-30T01:07:57;1.58;;;1.25;;
33786;SDS011;29742;51.540;9.358;2024-01-30T01:12:57;1.85;;;1.25;;
33786;SDS011;29742;51.540;9.358;2024-01-30T01:17:57;1.02;;;0.93;;
33786;SDS011;29742;51.540;9.358;2024-01-30T01:22:58;1.33;;;1.10;;
33786;SDS011;29742;51.540;9.358;2024-01-30T01:27:58;1.48;;;1.10;;
33786;SDS011;29742;51.540;9.358;2024-01-30T01:33:01;1.25;;;1.05;;
33786;SDS011;29742;51.540;9.358;2024-01-30T01:38:02;2.10;;;1.40;;
33786;SDS011;29742;51.540;9.358;2024-01-30T01:43:03;1.38;;;1.25;;
33786;SDS011;29742;51.540;9.358;2024-01-30T01:48:05;1.50;;;1.10;;
33786;SDS011;29742;51.540;9.358;2024-01-30T01:53:06;2.33;;;1.55;;
33786;SDS011;29742;51.540;9.358;2024-01-30T01:58:08;1.55;;;1.00;;
33786;SDS011;29742;51.540;9.358;2024-01-30T02:03:10;1.20;;;1.10;;
33786;SDS011;29742;51.540;9.358;2024-01-30T02:08:12;1.83;;;1.20;;
33786;SDS011;29742;51.540;9.358;2024-01-30T02:13:12;1.88;;;1.23;;
33786;SDS011;29742;51.540;9.358;2024-01-30T02:18:12;1.55;;;1.08;;
33786;SDS011;29742;51.540;9.358;2024-01-30T02:23:16;1.35;;;0.98;;
33786;SDS011;29742;51.540;9.358;2024-01-30T02:28:16;1.08;;;0.95;;
33786;SDS011;29742;51.540;9.358;2024-01-30T02:33:16;1.58;;;1.02;;
33786;SDS011;29742;51.540;9.358;2024-01-30T02:38:17;1.10;;;0.98;;
33786;SDS011;29742;51.540;9.358;2024-01-30T02:43:17;1.80;;;1.35;;
33786;SDS011;29742;51.540;9.358;2024-01-30T02:48:18;1.40;;;0.98;;
33786;SDS011;29742;51.540;9.358;2024-01-30T02:53:18;1.35;;;1.08;;
33786;SDS011;29742;51.540;9.358;2024-01-30T02:58:18;1.20;;;0.88;;
33786;SDS011;29742;51.540;9.358;2024-01-30T03:03:19;1.67;;;1.02;;
33786;SDS011;29742;51.540;9.358;2024-01-30T03:08:19;1.10;;;1.00;;
33786;SDS011;29742;51.540;9.358;2024-01-30T03:13:20;1.60;;;1.10;;
33786;SDS011;29742;51.540;9.358;2024-01-30T03:18:23;1.10;;;1.00;;
33786;SDS011;29742;51.540;9.358;2024-01-30T03:23:23;1.50;;;0.70;;
33786;SDS011;29742;51.540;9.358;2024-01-30T03:28:24;1.00;;;0.88;;
33786;SDS011;29742;51.540;9.358;2024-01-30T03:33:24;0.82;;;0.63;;
33786;SDS011;29742;51.540;9.358;2024-01-30T03:38:25;1.10;;;0.95;;
33786;SDS011;29742;51.540;9.358;2024-01-30T03:43:25;1.10;;;1.00;;
33786;SDS011;29742;51.540;9.358;2024-01-30T03:48:26;1.60;;;1.20;;
33786;SDS011;29742;51.540;9.358;2024-01-30T03:53:26;2.35;;;1.10;;
33786;SDS011;29742;51.540;9.358;2024-01-30T03:58:26;1.00;;;0.90;;
33786;SDS011;29742;51.540;9.358;2024-01-30T04:03:27;1.98;;;1.20;;
33786;SDS011;29742;51.540;9.358;2024-01-30T04:08:27;1.10;;;0.90;;
33786;SDS011;29742;51.540;9.358;2024-01-30T04:13:28;1.58;;;0.80;;
33786;SDS011;29742;51.540;9.358;2024-01-30T04:18:28;1.45;;;1.00;;
33786;SDS011;29742;51.540;9.358;2024-01-30T04:23:29;0.93;;;0.82;;
33786;SDS011;29742;51.540;9.358;2024-01-30T04:28:29;0.90;;;0.70;;
33786;SDS011;29742;51.540;9.358;2024-01-30T04:33:30;0.77;;;0.70;;
33786;SDS011;29742;51.540;9.358;2024-01-30T04:38:31;1.10;;;0.90;;
33786;SDS011;29742;51.540;9.358;2024-01-30T04:43:31;1.15;;;0.82;;
33786;SDS011;29742;51.540;9.358;2024-01-30T04:48:32;1.08;;;0.82;;
33786;SDS011;29742;51.540;9.358;2024-01-30T04:53:32;1.05;;;0.73;;
33786;SDS011;29742;51.540;9.358;2024-01-30T04:58:32;1.45;;;0.98;;
33786;SDS011;29742;51.540;9.358;2024-01-30T05:03:33;1.17;;;1.02;;
33786;SDS011;29742;51.540;9.358;2024-01-30T05:08:35;0.77;;;0.63;;
33786;SDS011;29742;51.540;9.358;2024-01-30T05:13:38;1.20;;;0.90;;
33786;SDS011;29742;51.540;9.358;2024-01-30T05:18:38;0.65;;;0.63;;
33786;SDS011;29742;51.540;9.358;2024-01-30T05:23:39;1.40;;;0.82;;
33786;SDS011;29742;51.540;9.358;2024-01-30T05:28:40;1.45;;;0.90;;
33786;SDS011;29742;51.540;9.358;2024-01-30T05:33:40;1.13;;;0.80;;
33786;SDS011;29742;51.540;9.358;2024-01-30T05:38:41;1.10;;;0.70;;
33786;SDS011;29742;51.540;9.358;2024-01-30T05:43:41;2.10;;;0.93;;
33786;SDS011;29742;51.540;9.358;2024-01-30T05:48:41;1.08;;;0.70;;
33786;SDS011;29742;51.540;9.358;2024-01-30T05:53:42;1.10;;;0.88;;
33786;SDS011;29742;51.540;9.358;2024-01-30T05:58:42;1.00;;;0.90;;
33786;SDS011;29742;51.540;9.358;2024-01-30T06:03:43;1.48;;;1.02;;
33786;SDS011;29742;51.540;9.358;2024-01-30T06:08:43;1.83;;;1.05;;
33786;SDS011;29742;51.540;9.358;2024-01-30T06:13:44;1.13;;;0.80;;
33786;SDS011;29742;51.540;9.358;2024-01-30T06:18:44;0.88;;;0.85;;
33786;SDS011;29742;51.540;9.358;2024-01-30T06:23:45;0.82;;;0.70;;
33786;SDS011;29742;51.540;9.358;2024-01-30T06:28:45;1.95;;;0.80;;
33786;SDS011;29742;51.540;9.358;2024-01-30T06:33:49;1.65;;;0.82;;
33786;SDS011;29742;51.540;9.358;2024-01-30T06:38:50;1.92;;;1.00;;
33786;SDS011;29742;51.540;9.358;2024-01-30T06:43:50;0.98;;;0.73;;
33786;SDS011;29742;51.540;9.358;2024-01-30T06:48:50;1.27;;;0.90;;
33786;SDS011;29742;51.540;9.358;2024-01-30T06:53:51;1.48;;;1.00;;
33786;SDS011;29742;51.540;9.358;2024-01-30T06:58:51;0.73;;;0.70;;
33786;SDS011;29742;51.540;9.358;2024-01-30T07:03:52;1.95;;;1.08;;
33786;SDS011;29742;51.540;9.358;2024-01-30T07:08:52;0.90;;;0.80;;
33786;SDS011;29742;51.540;9.358;2024-01-30T07:13:54;1.55;;;1.00;;
33786;SDS011;29742;51.540;9.358;2024-01-30T07:18:54;1.33;;;1.00;;
33786;SDS011;29742;51.540;9.358;2024-01-30T07:23:56;3.15;;;1.40;;
33786;SDS011;29742;51.540;9.358;2024-01-30T07:28:56;1.88;;;1.50;;
33786;SDS011;29742;51.540;9.358;2024-01-30T07:33:57;1.90;;;1.33;;
33786;SDS011;29742;51.540;9.358;2024-01-30T07:38:57;1.30;;;0.98;;
33786;SDS011;29742;51.540;9.358;2024-01-30T07:43:57;2.17;;;1.30;;
33786;SDS011;29742;51.540;9.358;2024-01-30T07:48:58;2.05;;;1.40;;
33786;SDS011;29742;51.540;9.358;2024-01-30T07:53:58;1.92;;;1.20;;
33786;SDS011;29742;51.540;9.358;2024-01-30T07:58:59;2.08;;;1.40;;
33786;SDS011;29742;51.540;9.358;2024-01-30T08:03:59;1.90;;;1.17;;
33786;SDS011;29742;51.540;9.358;2024-01-30T08:08:59;2.22;;;1.52;;
33786;SDS011;29742;51.540;9.358;2024-01-30T08:14:00;1.52;;;1.35;;
33786;SDS011;29742;51.540;9.358;2024-01-30T08:19:00;2.35;;;1.55;;
33786;SDS011;29742;51.540;9.358;2024-01-30T08:24:01;1.73;;;1.30;;
33786;SDS011;29742;51.540;9.358;2024-01-30T08:29:05;2.22;;;1.55;;
33786;SDS011;29742;51.540;9.358;2024-01-30T08:34:05;1.42;;;1.33;;
33786;SDS011;29742;51.540;9.358;2024-01-30T08:39:06;1.73;;;1.23;;
33786;SDS011;29742;51.540;9.358;2024-01-30T08:44:06;1.52;;;1.40;;
33786;SDS011;29742;51.540;9.358;2024-01-30T08:49:07;1.38;;;1.13;;
33786;SDS011;29742;51.540;9.358;2024-01-30T08:54:08;1.25;;;1.15;;
33786;SDS011;29742;51.540;9.358;2024-01-30T08:59:08;1.38;;;1.20;;
33786;SDS011;29742;51.540;9.358;2024-01-30T09:04:08;1.00;;;0.88;;
33786;SDS011;29742;51.540;9.358;2024-01-30T09:09:09;1.20;;;1.02;;
33786;SDS011;29742;51.540;9.358;2024-01-30T09:14:09;1.70;;;1.50;;
33786;SDS011;29742;51.540;9.358;2024-01-30T09:19:10;1.58;;;1.30;;
33786;SDS011;29742;51.540;9.358;2024-01-30T09:24:10;1.45;;;1.00;;
33786;SDS011;29742;51.540;9.358;2024-01-30T09:29:10;2.30;;;1.23;;
33786;SDS011;29742;51.540;9.358;2024-01-30T09:34:11;1.58;;;1.30;;
33786;SDS011;29742;51.540;9.358;2024-01-30T09:39:12;1.40;;;1.10;;
33786;SDS011;29742;51.540;9.358;2024-01-30T09:44:15;1.02;;;0.88;;
33786;SDS011;29742;51.540;9.358;2024-01-30T09:49:16;1.30;;;1.15;;
33786;SDS011;29742;51.540;9.358;2024-01-30T09:54:18;1.63;;;1.20;;
33786;SDS011;29742;51.540;9.358;2024-01-30T09:59:19;1.20;;;1.02;;
33786;SDS011;29742;51.540;9.358;2024-01-30T10:04:19;1.33;;;1.17;;
33786;SDS011;29742;51.540;9.358;2024-01-30T10:09:20;1.55;;;1.20;;
33786;SDS011;29742;51.540;9.358;2024-01-30T10:14:21;1.00;;;0.90;;
33786;SDS011;29742;51.540;9.358;2024-01-30T10:19:21;0.77;;;0.77;;
33786;SDS011;29742;51.540;9.358;2024-01-30T10:24:25;0.65;;;0.60;;
33786;SDS011;29742;51.540;9.358;2024-01-30T10:29:26;0.88;;;0.75;;
33786;SDS011;29742;51.540;9.358;2024-01-30T10:34:27;1.25;;;1.15;;
33786;SDS011;29742;51.540;9.358;2024-01-30T10:39:29;0.95;;;0.82;;
33786;SDS011;29742;51.540;9.358;2024-01-30T10:45:33;1.10;;;0.73;;
33786;SDS011;29742;51.540;9.358;2024-01-30T10:50:09;0.77;;;0.70;;
33786;SDS011;29742;51.540;9.358;2024-01-30T10:55:10;1.85;;;1.00;;
33786;SDS011;29742;51.540;9.358;2024-01-30T11:00:11;1.73;;;1.05;;
33786;SDS011;29742;51.540;9.358;2024-01-30T11:05:13;1.00;;;0.90;;
33786;SDS011;29742;51.540;9.358;2024-01-30T11:10:15;1.30;;;1.13;;
33786;SDS011;29742;51.540;9.358;2024-01-30T11:15:16;1.00;;;0.70;;
33786;SDS011;29742;51.540;9.358;2024-01-30T11:20:27;0.88;;;0.68;;
33786;SDS011;29742;51.540;9.358;2024-01-30T11:25:31;1.73;;;1.23;;
33786;SDS011;29742;51.540;9.358;2024-01-30T11:30:32;1.42;;;1.10;;
33786;SDS011;29742;51.540;9.358;2024-01-30T11:35:33;1.10;;;0.80;;
33786;SDS011;29742;51.540;9.358;2024-01-30T11:40:35;1.35;;;1.10;;
33786;SDS011;29742;51.540;9.358;2024-01-30T11:45:37;1.10;;;1.00;;
33786;SDS011;29742;51.540;9.358;2024-01-30T11:50:39;1.15;;;1.00;;
33786;SDS011;29742;51.540;9.358;2024-01-30T11:55:40;2.15;;;1.10;;
33786;SDS011;29742;51.540;9.358;2024-01-30T12:00:41;1.63;;;1.25;;
33786;SDS011;29742;51.540;9.358;2024-01-30T12:05:41;1.55;;;0.93;;
33786;SDS011;29742;51.540;9.358;2024-01-30T12:10:43;1.15;;;1.05;;
33786;SDS011;29742;51.540;9.358;2024-01-30T12:15:43;1.65;;;1.27;;
33786;SDS011;29742;51.540;9.358;2024-01-30T12:20:44;1.58;;;1.00;;
33786;SDS011;29742;51.540;9.358;2024-01-30T12:25:44;2.55;;;1.02;;
33786;SDS011;29742;51.540;9.358;2024-01-30T12:30:45;1.50;;;1.05;;
33786;SDS011;29742;51.540;9.358;2024-01-30T12:35:45;1.40;;;1.15;;
33786;SDS011;29742;51.540;9.358;2024-01-30T12:40:47;1.98;;;1.40;;
33786;SDS011;29742;51.540;9.358;2024-01-30T12:45:47;1.70;;;1.17;;
33786;SDS011;29742;51.540;9.358;2024-01-30T12:50:48;1.27;;;1.05;;
33786;SDS011;29742;51.540;9.358;2024-01-30T12:55:48;1.25;;;1.15;;
33786;SDS011;29742;51.540;9.358;2024-01-30T13:00:49;1.52;;;1.27;;
33786;SDS011;29742;51.540;9.358;2024-01-30T13:05:50;1.67;;;1.02;;
33786;SDS011;29742;51.540;9.358;2024-01-30T13:10:50;1.50;;;1.30;;
33786;SDS011;29742;51.540;9.358;2024-01-30T13:15:51;1.48;;;1.33;;
33786;SDS011;29742;51.540;9.358;2024-01-30T13:20:51;2.65;;;1.25;;
33786;SDS011;29742;51.540;9.358;2024-01-30T13:25:52;0.98;;;0.82;;
33786;SDS011;29742;51.540;9.358;2024-01-30T13:30:53;2.15;;;1.45;;
33786;SDS011;29742;51.540;9.358;2024-01-30T13:35:54;2.47;;;1.50;;
33786;SDS011;29742;51.540;9.358;2024-01-30T13:40:54;1.15;;;0.80;;
33786;SDS011;29742;51.540;9.358;2024-01-30T13:45:55;1.17;;;0.93;;
33786;SDS011;29742;51.540;9.358;2024-01-30T13:50:55;1.65;;;1.20;;
33786;SDS011;29742;51.540;9.358;2024-01-30T13:55:55;0.93;;;0.73;;
33786;SDS011;29742;51.540;9.358;2024-01-30T14:00:56;0.93;;;0.77;;
33786;SDS011;29742;51.540;9.358;2024-01-30T14:05:56;1.10;;;0.93;;
33786;SDS011;29742;51.540;9.358;2024-01-30T14:10:57;1.98;;;1.10;;
33786;SDS011;29742;51.540;9.358;2024-01-30T14:15:57;0.63;;;0.63;;
33786;SDS011;29742;51.540;9.358;2024-01-30T14:20:58;0.88;;;0.70;;
33786;SDS011;29742;51.540;9.358;2024-01-30T14:25:58;1.73;;;1.05;;
33786;SDS011;29742;51.540;9.358;2024-01-30T14:30:59;1.33;;;0.73;;
33786;SDS011;29742;51.540;9.358;2024-01-30T14:35:59;2.00;;;0.85;;
33786;SDS011;29742;51.540;9.358;2024-01-30T14:41:00;1.02;;;0.68;;
33786;SDS011;29742;51.540;9.358;2024-01-30T14:46:00;1.05;;;0.90;;
33786;SDS011;29742;51.540;9.358;2024-01-30T14:51:00;1.27;;;0.90;;
33786;SDS011;29742;51.540;9.358;2024-01-30T14:56:01;1.13;;;0.88;;
33786;SDS011;29742;51.540;9.358;2024-01-30T15:01:04;1.50;;;1.00;;
33786;SDS011;29742;51.540;9.358;2024-01-30T15:06:05;2.38;;;1.02;;
33786;SDS011;29742;51.540;9.358;2024-01-30T15:11:06;1.35;;;0.95;;
33786;SDS011;29742;51.540;9.358;2024-01-30T15:16:07;2.33;;;1.10;;
33786;SDS011;29742;51.540;9.358;2024-01-30T15:21:07;2.40;;;1.15;;
33786;SDS011;29742;51.540;9.358;2024-01-30T15:26:08;1.90;;;1.13;;
33786;SDS011;29742;51.540;9.358;2024-01-30T15:31:08;1.52;;;0.90;;
33786;SDS011;29742;51.540;9.358;2024-01-30T15:36:09;1.00;;;0.90;;
33786;SDS011;29742;51.540;9.358;2024-01-30T15:41:13;2.13;;;1.20;;
33786;SDS011;29742;51.540;9.358;2024-01-30T15:46:13;1.13;;;0.93;;
33786;SDS011;29742;51.540;9.358;2024-01-30T15:51:13;1.25;;;0.93;;
33786;SDS011;29742;51.540;9.358;2024-01-30T15:56:14;1.70;;;1.33;;
33786;SDS011;29742;51.540;9.358;2024-01-30T16:01:15;1.73;;;1.40;;
33786;SDS011;29742;51.540;9.358;2024-01-30T16:06:16;1.05;;;0.95;;
33786;SDS011;29742;51.540;9.358;2024-01-30T16:11:17;1.98;;;1.48;;
33786;SDS011;29742;51.540;9.358;2024-01-30T16:16:17;1.95;;;1.35;;
33786;SDS011;29742;51.540;9.358;2024-01-30T16:21:18;2.55;;;1.20;;
33786;SDS011;29742;51.540;9.358;2024-01-30T16:26:18;2.75;;;1.48;;
33786;SDS011;29742;51.540;9.358;2024-01-30T16:31:19;1.40;;;1.00;;
33786;SDS011;29742;51.540;9.358;2024-01-30T16:36:20;1.88;;;1.17;;
33786;SDS011;29742;51.540;9.358;2024-01-30T16:41:21;2.45;;;1.23;;
33786;SDS011;29742;51.540;9.358;2024-01-30T16:46:21;1.77;;;1.40;;
33786;SDS011;29742;51.540;9.358;2024-01-30T16:51:21;1.25;;;1.13;;
33786;SDS011;29742;51.540;9.358;2024-01-30T16:56:22;2.00;;;1.40;;
33786;SDS011;29742;51.540;9.358;2024-01-30T17:01:22;1.45;;;1.23;;
33786;SDS011;29742;51.540;9.358;2024-01-30T17:06:23;1.63;;;1.38;;
33786;SDS011;29742;51.540;9.358;2024-01-30T17:11:23;1.42;;;1.23;;
33786;SDS011;29742;51.540;9.358;2024-01-30T17:16:24;2.22;;;1.70;;
33786;SDS011;29742;51.540;9.358;2024-01-30T17:21:24;1.40;;;1.30;;
33786;SDS011;29742;51.540;9.358;2024-01-30T17:26:24;2.10;;;1.38;;
33786;SDS011;29742;51.540;9.358;2024-01-30T17:31:25;2.08;;;1.38;;
33786;SDS011;29742;51.540;9.358;2024-01-30T17:36:25;2.22;;;1.55;;
33786;SDS011;29742;51.540;9.358;2024-01-30T17:41:26;1.50;;;1.30;;
33786;SDS011;29742;51.540;9.358;2024-01-30T17:46:26;1.98;;;1.05;;
33786;SDS011;29742;51.540;9.358;2024-01-30T17:51:26;1.08;;;1.00;;
33786;SDS011;29742;51.540;9.358;2024-01-30T17:56:27;1.90;;;1.23;;
33786;SDS011;29742;51.540;9.358;2024-01-30T18:01:27;1.20;;;1.10;;
33786;SDS011;29742;51.540;9.358;2024-01-30T18:06:28;1.60;;;1.30;;
33786;SDS011;29742;51.540;9.358;2024-01-30T18:11:29;1.25;;;1.05;;
33786;SDS011;29742;51.540;9.358;2024-01-30T18:16:29;2.28;;;1.10;;
33786;SDS011;29742;51.540;9.358;2024-01-30T18:21:30;2.00;;;1.42;;
33786;SDS011;29742;51.540;9.358;2024-01-30T18:26:30;2.00;;;1.13;;
33786;SDS011;29742;51.540;9.358;2024-01-30T18:31:31;2.53;;;1.25;;
33786;SDS011;29742;51.540;9.358;2024-01-30T18:36:31;1.92;;;1.13;;
33786;SDS011;29742;51.540;9.358;2024-01-30T18:41:31;1.10;;;1.00;;
33786;SDS011;29742;51.540;9.358;2024-01-30T18:46:32;2.42;;;1.40;;
33786;SDS011;29742;51.540;9.358;2024-01-30T18:51:33;1.42;;;1.10;;
33786;SDS011;29742;51.540;9.358;2024-01-30T18:56:33;1.58;;;1.30;;
33786;SDS011;29742;51.540;9.358;2024-01-30T19:01:33;1.88;;;1.05;;
33786;SDS011;29742;51.540;9.358;2024-01-30T19:06:34;1.00;;;0.80;;
33786;SDS011;29742;51.540;9.358;2024-01-30T19:11:34;0.75;;;0.70;;
33786;SDS011;29742;51.540;9.358;2024-01-30T19:16:35;1.88;;;1.20;;
33786;SDS011;29742;51.540;9.358;2024-01-30T19:21:35;1.15;;;1.02;;
33786;SDS011;29742;51.540;9.358;2024-01-30T19:26:36;0.85;;;0.80;;
33786;SDS011;29742;51.540;9.358;2024-01-30T19:31:36;1.27;;;0.80;;
33786;SDS011;29742;51.540;9.358;2024-01-30T19:36:37;1.00;;;0.70;;
33786;SDS011;29742;51.540;9.358;2024-01-30T19:41:40;1.27;;;0.88;;
33786;SDS011;29742;51.540;9.358;2024-01-30T19:46:42;1.10;;;0.80;;
33786;SDS011;29742;51.540;9.358;2024-01-30T19:51:43;1.40;;;0.75;;
33786;SDS011;29742;51.540;9.358;2024-01-30T19:56:43;1.70;;;1.00;;
33786;SDS011;29742;51.540;9.358;2024-01-30T20:01:43;0.98;;;0.80;;
33786;SDS011;29742;51.540;9.358;2024-01-30T20:06:44;0.77;;;0.70;;
33786;SDS011;29742;51.540;9.358;2024-01-30T20:11:44;1.13;;;0.73;;
33786;SDS011;29742;51.540;9.358;2024-01-30T20:16:45;1.38;;;1.10;;
33786;SDS011;29742;51.540;9.358;2024-01-30T20:21:47;1.40;;;1.10;;
33786;SDS011;29742;51.540;9.358;2024-01-30T20:26:48;1.15;;;0.80;;
33786;SDS011;29742;51.540;9.358;2024-01-30T20:31:49;0.93;;;0.82;;
33786;SDS011;29742;51.540;9.358;2024-01-30T20:36:49;0.65;;;0.65;;
33786;SDS011;29742;51.540;9.358;2024-01-30T20:41:49;1.00;;;0.80;;
33786;SDS011;29742;51.540;9.358;2024-01-30T20:46:50;0.93;;;0.70;;
33786;SDS011;29742;51.540;9.358;2024-01-30T20:51:51;1.27;;;0.80;;
33786;SDS011;29742;51.540;9.358;2024-01-30T20:56:51;0.85;;;0.75;;
33786;SDS011;29742;51.540;9.358;2024-01-30T21:01:52;0.95;;;0.73;;
33786;SDS011;29742;51.540;9.358;2024-01-30T21:06:52;1.52;;;0.80;;
33786;SDS011;29742;51.540;9.358;2024-01-30T21:11:52;0.52;;;0.52;;
33786;SDS011;29742;51.540;9.358;2024-01-30T21:16:53;0.95;;;0.52;;
33786;SDS011;29742;51.540;9.358;2024-01-30T21:21:53;0.70;;;0.50;;
33786;SDS011;29742;51.540;9.358;2024-01-30T21:26:54;0.82;;;0.70;;
33786;SDS011;29742;51.540;9.358;2024-01-30T21:31:54;0.50;;;0.45;;
33786;SDS011;29742;51.540;9.358;2024-01-30T21:36:54;0.95;;;0.57;;
33786;SDS011;29742;51.540;9.358;2024-01-30T21:41:55;1.10;;;0.80;;
33786;SDS011;29742;51.540;9.358;2024-01-30T21:46:55;0.40;;;0.40;;
33786;SDS011;29742;51.540;9.358;2024-01-30T21:51:56;0.65;;;0.50;;
33786;SDS011;29742;51.540;9.358;2024-01-30T21:56:56;0.98;;;0.80;;
33786;SDS011;29742;51.540;9.358;2024-01-30T22:01:57;0.90;;;0.50;;
33786;SDS011;29742;51.540;9.358;2024-01-30T22:06:57;0.43;;;0.40;;
33786;SDS011;29742;51.540;9.358;2024-01-30T22:11:58;0.43;;;0.40;;
33786;SDS011;29742;51.540;9.358;2024-01-30T22:16:58;0.47;;;0.47;;
33786;SDS011;29742;51.540;9.358;2024-01-30T22:21:58;0.40;;;0.40;;
33786;SDS011;29742;51.540;9.358;2024-01-30T22:26:59;0.70;;;0.70;;
33786;SDS011;29742;51.540;9.358;2024-01-30T22:31:59;4.13;;;0.75;;
33786;SDS011;29742;51.540;9.358;2024-01-30T22:37:02;0.95;;;0.55;;
33786;SDS011;29742;51.540;9.358;2024-01-30T22:42:03;1.25;;;0.68;;
33786;SDS011;29742;51.540;9.358;2024-01-30T22:47:04;0.85;;;0.30;;
33786;SDS011;29742;51.540;9.358;2024-01-30T22:52:04;1.05;;;0.50;;
33786;SDS011;29742;51.540;9.358;2024-01-30T22:57:05;0.52;;;0.45;;
33786;SDS011;29742;51.540;9.358;2024-01-30T23:02:05;0.52;;;0.50;;
33786;SDS011;29742;51.540;9.358;2024-01-30T23:07:06;0.70;;;0.52;;
33786;SDS011;29742;51.540;9.358;2024-01-30T23:12:06;1.13;;;0.75;;
33786;SDS011;29742;51.540;9.358;2024-01-30T23:17:07;0.38;;;0.28;;
33786;SDS011;29742;51.540;9.358;2024-01-30T23:22:08;0.30;;;0.22;;
33786;SDS011;29742;51.540;9.358;2024-01-30T23:27:09;0.30;;;0.20;;
33786;SDS011;29742;51.540;9.358;2024-01-30T23:32:09;0.30;;;0.20;;
33786;SDS011;29742;51.540;9.358;2024-01-30T23:37:10;0.60;;;0.40;;
33786;SDS011;29742;51.540;9.358;2024-01-30T23:42:10;0.20;;;0.20;;
33786;SDS011;29742;51.540;9.358;2024-01-30T23:47:11;0.30;;;0.20;;
33786;SDS011;29742;51.540;9.358;2024-01-30T23:52:11;0.10;;;0.10;;
33786;SDS011;29742;51.540;9.358;2024-01-30T23:57:12;0.65;;;0.30;;
